sensor_id;sensor_type;location;lat;lon;timestamp;P1;durP1;ratioP1;P2;durP2;ratioP2
249;SDS011;109;19.806;-70.704;2022-07-23T00:01:48;21.60;;;5.70;;
249;SDS011;109;19.806;-70.704;2022-07-23T00:04:14;20.90;;;6.67;;
249;SDS011;109;19.806;-70.704;2022-07-23T00:06:40;22.10;;;5.67;;
249;SDS011;109;19.806;-70.704;2022-07-23T00:09:07;20.23;;;5.77;;
249;SDS011;109;19.806;-70.704;2022-07-23T00:11:33;17.23;;;5.63;;
249;SDS011;109;19.806;-70.704;2022-07-23T00:13:59;23.90;;;6.40;;
249;SDS011;109;19.806;-70.704;2022-07-23T00:16:26;25.87;;;6.10;;
249;SDS011;109;19.806;-70.704;2022-07-23T00:18:52;22.97;;;5.63;;
249;SDS011;109;19.806;-70.704;2022-07-23T00:21:19;22.20;;;6.30;;
249;SDS011;109;19.806;-70.704;2022-07-23T00:23:45;21.23;;;5.70;;
249;SDS011;109;19.806;-70.704;2022-07-23T00:26:11;17.60;;;5.33;;
249;SDS011;109;19.806;-70.704;2022-07-23T00:28:38;19.60;;;6.70;;
249;SDS011;109;19.806;-70.704;2022-07-23T00:31:04;19.10;;;5.80;;
249;SDS011;109;19.806;-70.704;2022-07-23T00:33:31;23.40;;;6.60;;
249;SDS011;109;19.806;-70.704;2022-07-23T00:36:04;25.40;;;6.83;;
249;SDS011;109;19.806;-70.704;2022-07-23T00:38:31;20.10;;;7.07;;
249;SDS011;109;19.806;-70.704;2022-07-23T00:41:04;16.10;;;6.90;;
249;SDS011;109;19.806;-70.704;2022-07-23T00:43:31;25.57;;;5.83;;
249;SDS011;109;19.806;-70.704;2022-07-23T00:46:04;18.93;;;5.67;;
249;SDS011;109;19.806;-70.704;2022-07-23T00:48:30;20.73;;;6.83;;
249;SDS011;109;19.806;-70.704;2022-07-23T00:51:03;27.97;;;5.90;;
249;SDS011;109;19.806;-70.704;2022-07-23T00:53:30;18.13;;;6.10;;
249;SDS011;109;19.806;-70.704;2022-07-23T00:56:03;26.33;;;5.47;;
249;SDS011;109;19.806;-70.704;2022-07-23T00:58:31;17.83;;;6.23;;
249;SDS011;109;19.806;-70.704;2022-07-23T01:01:07;18.87;;;5.00;;
249;SDS011;109;19.806;-70.704;2022-07-23T01:03:34;22.07;;;5.57;;
249;SDS011;109;19.806;-70.704;2022-07-23T01:06:07;23.33;;;5.30;;
249;SDS011;109;19.806;-70.704;2022-07-23T01:08:34;30.20;;;6.13;;
249;SDS011;109;19.806;-70.704;2022-07-23T01:11:07;37.00;;;7.30;;
249;SDS011;109;19.806;-70.704;2022-07-23T01:13:34;24.80;;;6.43;;
249;SDS011;109;19.806;-70.704;2022-07-23T01:16:07;23.43;;;5.87;;
249;SDS011;109;19.806;-70.704;2022-07-23T01:18:34;38.70;;;7.53;;
249;SDS011;109;19.806;-70.704;2022-07-23T01:21:08;25.03;;;6.00;;
249;SDS011;109;19.806;-70.704;2022-07-23T01:23:45;23.40;;;6.83;;
249;SDS011;109;19.806;-70.704;2022-07-23T01:26:11;24.90;;;6.53;;
249;SDS011;109;19.806;-70.704;2022-07-23T01:28:49;26.97;;;6.87;;
249;SDS011;109;19.806;-70.704;2022-07-23T01:31:36;24.93;;;6.83;;
249;SDS011;109;19.806;-70.704;2022-07-23T01:34:16;20.47;;;5.77;;
249;SDS011;109;19.806;-70.704;2022-07-23T01:36:43;23.07;;;5.87;;
249;SDS011;109;19.806;-70.704;2022-07-23T01:39:22;22.80;;;6.63;;
249;SDS011;109;19.806;-70.704;2022-07-23T01:41:51;28.03;;;6.70;;
249;SDS011;109;19.806;-70.704;2022-07-23T01:44:32;27.47;;;5.97;;
249;SDS011;109;19.806;-70.704;2022-07-23T01:46:59;27.07;;;6.43;;
249;SDS011;109;19.806;-70.704;2022-07-23T01:49:40;21.23;;;5.40;;
249;SDS011;109;19.806;-70.704;2022-07-23T01:52:25;19.63;;;5.77;;
249;SDS011;109;19.806;-70.704;2022-07-23T01:55:06;27.43;;;7.10;;
249;SDS011;109;19.806;-70.704;2022-07-23T01:57:36;27.73;;;6.47;;
249;SDS011;109;19.806;-70.704;2022-07-23T02:00:19;19.87;;;5.67;;
249;SDS011;109;19.806;-70.704;2022-07-23T02:02:52;23.27;;;6.30;;
249;SDS011;109;19.806;-70.704;2022-07-23T02:05:33;22.80;;;5.70;;
249;SDS011;109;19.806;-70.704;2022-07-23T02:08:13;27.87;;;5.80;;
249;SDS011;109;19.806;-70.704;2022-07-23T02:10:40;21.00;;;5.67;;
249;SDS011;109;19.806;-70.704;2022-07-23T02:13:20;25.13;;;6.10;;
249;SDS011;109;19.806;-70.704;2022-07-23T02:15:47;21.73;;;5.50;;
249;SDS011;109;19.806;-70.704;2022-07-23T02:18:28;36.70;;;7.30;;
249;SDS011;109;19.806;-70.704;2022-07-23T02:20:54;17.70;;;6.27;;
249;SDS011;109;19.806;-70.704;2022-07-23T02:23:34;35.40;;;6.50;;
249;SDS011;109;19.806;-70.704;2022-07-23T02:26:01;29.40;;;6.77;;
249;SDS011;109;19.806;-70.704;2022-07-23T02:28:47;25.13;;;6.73;;
249;SDS011;109;19.806;-70.704;2022-07-23T02:31:33;34.80;;;7.20;;
249;SDS011;109;19.806;-70.704;2022-07-23T02:34:13;26.77;;;6.83;;
249;SDS011;109;19.806;-70.704;2022-07-23T02:36:40;23.20;;;6.30;;
249;SDS011;109;19.806;-70.704;2022-07-23T02:39:21;28.23;;;7.03;;
249;SDS011;109;19.806;-70.704;2022-07-23T02:41:48;23.90;;;6.70;;
249;SDS011;109;19.806;-70.704;2022-07-23T02:44:29;31.83;;;7.00;;
249;SDS011;109;19.806;-70.704;2022-07-23T02:46:56;34.70;;;7.20;;
249;SDS011;109;19.806;-70.704;2022-07-23T02:49:35;21.60;;;6.53;;
249;SDS011;109;19.806;-70.704;2022-07-23T02:52:04;52.43;;;7.27;;
249;SDS011;109;19.806;-70.704;2022-07-23T02:54:45;27.90;;;6.77;;
249;SDS011;109;19.806;-70.704;2022-07-23T02:57:14;28.77;;;7.33;;
249;SDS011;109;19.806;-70.704;2022-07-23T02:59:56;30.43;;;6.70;;
249;SDS011;109;19.806;-70.704;2022-07-23T03:02:22;38.80;;;7.17;;
249;SDS011;109;19.806;-70.704;2022-07-23T03:05:02;27.37;;;7.10;;
249;SDS011;109;19.806;-70.704;2022-07-23T03:07:29;29.30;;;6.43;;
249;SDS011;109;19.806;-70.704;2022-07-23T03:10:09;23.63;;;6.00;;
249;SDS011;109;19.806;-70.704;2022-07-23T03:12:36;28.73;;;7.17;;
249;SDS011;109;19.806;-70.704;2022-07-23T03:15:16;29.87;;;7.13;;
249;SDS011;109;19.806;-70.704;2022-07-23T03:17:43;16.20;;;6.60;;
249;SDS011;109;19.806;-70.704;2022-07-23T03:20:23;28.23;;;6.67;;
249;SDS011;109;19.806;-70.704;2022-07-23T03:22:50;36.33;;;7.60;;
249;SDS011;109;19.806;-70.704;2022-07-23T03:25:37;27.70;;;6.93;;
249;SDS011;109;19.806;-70.704;2022-07-23T03:28:28;23.83;;;6.77;;
249;SDS011;109;19.806;-70.704;2022-07-23T03:31:01;30.77;;;6.87;;
249;SDS011;109;19.806;-70.704;2022-07-23T03:33:41;31.47;;;7.30;;
249;SDS011;109;19.806;-70.704;2022-07-23T03:36:08;28.60;;;6.50;;
249;SDS011;109;19.806;-70.704;2022-07-23T03:38:48;29.30;;;7.90;;
249;SDS011;109;19.806;-70.704;2022-07-23T03:41:14;35.23;;;6.97;;
249;SDS011;109;19.806;-70.704;2022-07-23T03:43:55;25.67;;;7.40;;
249;SDS011;109;19.806;-70.704;2022-07-23T03:46:21;31.30;;;7.77;;
249;SDS011;109;19.806;-70.704;2022-07-23T03:49:01;26.23;;;6.90;;
249;SDS011;109;19.806;-70.704;2022-07-23T03:51:28;32.50;;;7.00;;
249;SDS011;109;19.806;-70.704;2022-07-23T03:54:08;31.20;;;6.53;;
249;SDS011;109;19.806;-70.704;2022-07-23T03:56:41;31.40;;;7.00;;
249;SDS011;109;19.806;-70.704;2022-07-23T03:59:22;32.37;;;8.03;;
249;SDS011;109;19.806;-70.704;2022-07-23T04:01:49;32.53;;;9.00;;
249;SDS011;109;19.806;-70.704;2022-07-23T04:04:28;40.17;;;7.43;;
249;SDS011;109;19.806;-70.704;2022-07-23T04:06:56;42.43;;;9.20;;
249;SDS011;109;19.806;-70.704;2022-07-23T04:09:37;32.30;;;7.93;;
249;SDS011;109;19.806;-70.704;2022-07-23T04:12:12;28.57;;;7.93;;
249;SDS011;109;19.806;-70.704;2022-07-23T04:14:53;31.83;;;7.20;;
249;SDS011;109;19.806;-70.704;2022-07-23T04:17:20;33.50;;;7.30;;
249;SDS011;109;19.806;-70.704;2022-07-23T04:20:01;42.17;;;9.00;;
249;SDS011;109;19.806;-70.704;2022-07-23T04:22:33;23.80;;;6.60;;
249;SDS011;109;19.806;-70.704;2022-07-23T04:25:13;28.17;;;7.30;;
249;SDS011;109;19.806;-70.704;2022-07-23T04:27:43;31.70;;;6.93;;
249;SDS011;109;19.806;-70.704;2022-07-23T04:30:29;27.17;;;7.80;;
249;SDS011;109;19.806;-70.704;2022-07-23T04:33:03;38.87;;;7.00;;
249;SDS011;109;19.806;-70.704;2022-07-23T04:35:43;33.30;;;6.90;;
249;SDS011;109;19.806;-70.704;2022-07-23T04:38:23;28.53;;;7.60;;
249;SDS011;109;19.806;-70.704;2022-07-23T04:40:53;42.53;;;7.50;;
249;SDS011;109;19.806;-70.704;2022-07-23T04:43:33;27.63;;;6.43;;
249;SDS011;109;19.806;-70.704;2022-07-23T04:45:59;33.30;;;8.17;;
249;SDS011;109;19.806;-70.704;2022-07-23T04:48:45;20.40;;;6.07;;
249;SDS011;109;19.806;-70.704;2022-07-23T04:51:18;24.97;;;7.00;;
249;SDS011;109;19.806;-70.704;2022-07-23T04:53:59;27.07;;;7.00;;
249;SDS011;109;19.806;-70.704;2022-07-23T04:56:33;26.47;;;5.80;;
249;SDS011;109;19.806;-70.704;2022-07-23T04:59:13;34.30;;;7.40;;
249;SDS011;109;19.806;-70.704;2022-07-23T05:01:41;27.07;;;6.87;;
249;SDS011;109;19.806;-70.704;2022-07-23T05:04:20;27.73;;;7.60;;
249;SDS011;109;19.806;-70.704;2022-07-23T05:06:47;33.37;;;8.13;;
249;SDS011;109;19.806;-70.704;2022-07-23T05:09:28;37.67;;;6.80;;
249;SDS011;109;19.806;-70.704;2022-07-23T05:11:54;24.47;;;6.80;;
249;SDS011;109;19.806;-70.704;2022-07-23T05:14:34;33.80;;;6.40;;
249;SDS011;109;19.806;-70.704;2022-07-23T05:17:01;25.53;;;6.90;;
249;SDS011;109;19.806;-70.704;2022-07-23T05:19:41;34.53;;;7.30;;
249;SDS011;109;19.806;-70.704;2022-07-23T05:22:07;33.20;;;6.47;;
249;SDS011;109;19.806;-70.704;2022-07-23T05:24:46;31.67;;;7.50;;
249;SDS011;109;19.806;-70.704;2022-07-23T05:27:13;25.87;;;7.13;;
249;SDS011;109;19.806;-70.704;2022-07-23T05:29:59;28.90;;;7.13;;
249;SDS011;109;19.806;-70.704;2022-07-23T05:32:35;32.57;;;7.47;;
249;SDS011;109;19.806;-70.704;2022-07-23T05:35:16;26.03;;;7.00;;
249;SDS011;109;19.806;-70.704;2022-07-23T05:37:53;28.07;;;6.50;;
249;SDS011;109;19.806;-70.704;2022-07-23T05:40:34;23.97;;;6.37;;
249;SDS011;109;19.806;-70.704;2022-07-23T05:43:00;20.93;;;6.40;;
249;SDS011;109;19.806;-70.704;2022-07-23T05:45:49;23.63;;;6.83;;
249;SDS011;109;19.806;-70.704;2022-07-23T05:48:28;43.20;;;7.47;;
249;SDS011;109;19.806;-70.704;2022-07-23T05:51:25;31.50;;;8.00;;
249;SDS011;109;19.806;-70.704;2022-07-23T05:54:04;27.10;;;6.93;;
249;SDS011;109;19.806;-70.704;2022-07-23T05:56:35;40.03;;;7.67;;
249;SDS011;109;19.806;-70.704;2022-07-23T05:59:14;37.67;;;8.13;;
249;SDS011;109;19.806;-70.704;2022-07-23T06:01:40;34.37;;;8.73;;
249;SDS011;109;19.806;-70.704;2022-07-23T06:04:20;29.77;;;7.23;;
249;SDS011;109;19.806;-70.704;2022-07-23T06:07:06;35.50;;;8.00;;
249;SDS011;109;19.806;-70.704;2022-07-23T06:09:46;44.00;;;7.50;;
249;SDS011;109;19.806;-70.704;2022-07-23T06:12:15;29.20;;;6.43;;
249;SDS011;109;19.806;-70.704;2022-07-23T06:14:56;28.30;;;7.40;;
249;SDS011;109;19.806;-70.704;2022-07-23T06:17:23;28.03;;;6.70;;
249;SDS011;109;19.806;-70.704;2022-07-23T06:20:02;32.67;;;8.23;;
249;SDS011;109;19.806;-70.704;2022-07-23T06:22:29;31.10;;;7.60;;
249;SDS011;109;19.806;-70.704;2022-07-23T06:25:08;32.50;;;8.37;;
249;SDS011;109;19.806;-70.704;2022-07-23T06:27:35;26.90;;;6.80;;
249;SDS011;109;19.806;-70.704;2022-07-23T06:30:21;31.73;;;6.90;;
249;SDS011;109;19.806;-70.704;2022-07-23T06:32:54;20.93;;;6.27;;
249;SDS011;109;19.806;-70.704;2022-07-23T06:35:34;32.13;;;6.77;;
249;SDS011;109;19.806;-70.704;2022-07-23T06:38:14;30.23;;;6.90;;
249;SDS011;109;19.806;-70.704;2022-07-23T06:40:41;29.90;;;7.17;;
249;SDS011;109;19.806;-70.704;2022-07-23T06:43:21;26.30;;;6.83;;
249;SDS011;109;19.806;-70.704;2022-07-23T06:45:52;28.17;;;6.97;;
249;SDS011;109;19.806;-70.704;2022-07-23T06:48:32;35.73;;;8.30;;
249;SDS011;109;19.806;-70.704;2022-07-23T06:51:01;58.50;;;10.50;;
249;SDS011;109;19.806;-70.704;2022-07-23T06:53:41;61.67;;;9.23;;
249;SDS011;109;19.806;-70.704;2022-07-23T06:56:08;42.43;;;9.20;;
249;SDS011;109;19.806;-70.704;2022-07-23T06:58:48;34.63;;;7.00;;
249;SDS011;109;19.806;-70.704;2022-07-23T07:01:14;27.93;;;6.80;;
249;SDS011;109;19.806;-70.704;2022-07-23T07:03:55;35.43;;;6.23;;
249;SDS011;109;19.806;-70.704;2022-07-23T07:06:28;31.20;;;6.80;;
249;SDS011;109;19.806;-70.704;2022-07-23T07:09:08;28.40;;;7.50;;
249;SDS011;109;19.806;-70.704;2022-07-23T07:11:34;28.60;;;7.90;;
249;SDS011;109;19.806;-70.704;2022-07-23T07:14:14;28.20;;;6.63;;
249;SDS011;109;19.806;-70.704;2022-07-23T07:16:40;29.97;;;7.03;;
249;SDS011;109;19.806;-70.704;2022-07-23T07:19:20;22.80;;;6.10;;
249;SDS011;109;19.806;-70.704;2022-07-23T07:21:46;28.90;;;6.50;;
249;SDS011;109;19.806;-70.704;2022-07-23T07:24:26;28.77;;;7.30;;
249;SDS011;109;19.806;-70.704;2022-07-23T07:26:52;32.60;;;7.53;;
249;SDS011;109;19.806;-70.704;2022-07-23T07:29:39;27.50;;;6.67;;
249;SDS011;109;19.806;-70.704;2022-07-23T07:32:18;31.30;;;6.97;;
249;SDS011;109;19.806;-70.704;2022-07-23T07:34:58;25.10;;;6.53;;
249;SDS011;109;19.806;-70.704;2022-07-23T07:37:24;29.20;;;7.87;;
249;SDS011;109;19.806;-70.704;2022-07-23T07:40:04;31.20;;;7.77;;
249;SDS011;109;19.806;-70.704;2022-07-23T07:42:31;30.50;;;7.00;;
249;SDS011;109;19.806;-70.704;2022-07-23T07:45:11;34.13;;;8.23;;
249;SDS011;109;19.806;-70.704;2022-07-23T07:47:44;31.50;;;6.97;;
249;SDS011;109;19.806;-70.704;2022-07-23T07:50:24;30.67;;;6.20;;
249;SDS011;109;19.806;-70.704;2022-07-23T07:52:51;29.40;;;7.10;;
249;SDS011;109;19.806;-70.704;2022-07-23T07:55:31;39.80;;;6.97;;
249;SDS011;109;19.806;-70.704;2022-07-23T07:58:11;29.00;;;6.73;;
249;SDS011;109;19.806;-70.704;2022-07-23T08:00:38;38.70;;;8.17;;
249;SDS011;109;19.806;-70.704;2022-07-23T08:03:17;36.90;;;7.20;;
249;SDS011;109;19.806;-70.704;2022-07-23T08:05:44;29.87;;;7.20;;
249;SDS011;109;19.806;-70.704;2022-07-23T08:08:24;44.77;;;8.57;;
249;SDS011;109;19.806;-70.704;2022-07-23T08:10:51;28.67;;;6.83;;
249;SDS011;109;19.806;-70.704;2022-07-23T08:13:30;30.07;;;6.87;;
249;SDS011;109;19.806;-70.704;2022-07-23T08:15:57;29.37;;;7.00;;
249;SDS011;109;19.806;-70.704;2022-07-23T08:18:36;44.17;;;8.00;;
249;SDS011;109;19.806;-70.704;2022-07-23T08:21:03;38.13;;;7.00;;
249;SDS011;109;19.806;-70.704;2022-07-23T08:23:43;37.53;;;7.17;;
249;SDS011;109;19.806;-70.704;2022-07-23T08:26:18;31.73;;;7.57;;
249;SDS011;109;19.806;-70.704;2022-07-23T08:29:04;30.67;;;8.30;;
249;SDS011;109;19.806;-70.704;2022-07-23T08:31:43;36.40;;;8.50;;
249;SDS011;109;19.806;-70.704;2022-07-23T08:34:24;36.87;;;11.80;;
249;SDS011;109;19.806;-70.704;2022-07-23T08:36:50;46.60;;;12.20;;
249;SDS011;109;19.806;-70.704;2022-07-23T08:39:30;38.83;;;10.70;;
249;SDS011;109;19.806;-70.704;2022-07-23T08:41:57;24.50;;;8.80;;
249;SDS011;109;19.806;-70.704;2022-07-23T08:44:36;33.57;;;8.00;;
249;SDS011;109;19.806;-70.704;2022-07-23T08:47:14;29.90;;;7.80;;
249;SDS011;109;19.806;-70.704;2022-07-23T08:49:55;38.60;;;9.03;;
249;SDS011;109;19.806;-70.704;2022-07-23T08:52:31;33.23;;;10.13;;
249;SDS011;109;19.806;-70.704;2022-07-23T08:55:13;37.13;;;8.40;;
249;SDS011;109;19.806;-70.704;2022-07-23T08:57:52;27.70;;;7.47;;
249;SDS011;109;19.806;-70.704;2022-07-23T09:00:32;33.17;;;8.83;;
249;SDS011;109;19.806;-70.704;2022-07-23T09:02:59;30.20;;;8.00;;
249;SDS011;109;19.806;-70.704;2022-07-23T09:05:38;33.23;;;7.90;;
249;SDS011;109;19.806;-70.704;2022-07-23T09:08:21;33.30;;;8.63;;
249;SDS011;109;19.806;-70.704;2022-07-23T09:10:59;42.10;;;9.60;;
249;SDS011;109;19.806;-70.704;2022-07-23T09:13:41;43.30;;;8.80;;
249;SDS011;109;19.806;-70.704;2022-07-23T09:16:18;28.93;;;8.63;;
249;SDS011;109;19.806;-70.704;2022-07-23T09:19:03;37.37;;;9.87;;
249;SDS011;109;19.806;-70.704;2022-07-23T09:21:32;41.77;;;9.20;;
249;SDS011;109;19.806;-70.704;2022-07-23T09:24:21;28.70;;;8.03;;
249;SDS011;109;19.806;-70.704;2022-07-23T09:26:54;23.47;;;6.70;;
249;SDS011;109;19.806;-70.704;2022-07-23T09:29:41;28.03;;;5.80;;
249;SDS011;109;19.806;-70.704;2022-07-23T09:32:35;30.27;;;7.10;;
249;SDS011;109;19.806;-70.704;2022-07-23T09:35:15;28.60;;;7.17;;
249;SDS011;109;19.806;-70.704;2022-07-23T09:37:41;37.73;;;6.97;;
249;SDS011;109;19.806;-70.704;2022-07-23T09:40:40;31.50;;;8.03;;
249;SDS011;109;19.806;-70.704;2022-07-23T09:43:27;33.60;;;6.90;;
249;SDS011;109;19.806;-70.704;2022-07-23T09:49:18;64.70;;;8.23;;
249;SDS011;109;19.806;-70.704;2022-07-23T09:51:54;59.73;;;9.93;;
249;SDS011;109;19.806;-70.704;2022-07-23T09:54:36;58.90;;;9.13;;
249;SDS011;109;19.806;-70.704;2022-07-23T09:59:49;85.03;;;12.10;;
249;SDS011;109;19.806;-70.704;2022-07-23T10:02:16;81.73;;;11.83;;
249;SDS011;109;19.806;-70.704;2022-07-23T10:05:15;64.00;;;11.90;;
249;SDS011;109;19.806;-70.704;2022-07-23T10:08:01;92.93;;;11.43;;
249;SDS011;109;19.806;-70.704;2022-07-23T10:11:00;73.20;;;10.33;;
249;SDS011;109;19.806;-70.704;2022-07-23T10:13:53;85.37;;;11.17;;
249;SDS011;109;19.806;-70.704;2022-07-23T10:16:58;52.93;;;8.20;;
249;SDS011;109;19.806;-70.704;2022-07-23T10:19:38;52.47;;;10.17;;
249;SDS011;109;19.806;-70.704;2022-07-23T10:22:10;58.73;;;10.57;;
249;SDS011;109;19.806;-70.704;2022-07-23T10:39:04;44.93;;;9.37;;
249;SDS011;109;19.806;-70.704;2022-07-23T10:41:47;102.30;;;12.97;;
249;SDS011;109;19.806;-70.704;2022-07-23T10:44:32;122.97;;;17.50;;
249;SDS011;109;19.806;-70.704;2022-07-23T10:47:04;113.63;;;18.57;;
249;SDS011;109;19.806;-70.704;2022-07-23T10:49:49;70.50;;;12.20;;
249;SDS011;109;19.806;-70.704;2022-07-23T10:52:21;141.23;;;19.50;;
249;SDS011;109;19.806;-70.704;2022-07-23T10:54:53;98.57;;;13.23;;
249;SDS011;109;19.806;-70.704;2022-07-23T10:57:22;46.43;;;7.27;;
249;SDS011;109;19.806;-70.704;2022-07-23T11:02:35;25.37;;;6.13;;
249;SDS011;109;19.806;-70.704;2022-07-23T11:05:07;30.80;;;5.50;;
249;SDS011;109;19.806;-70.704;2022-07-23T11:07:36;24.73;;;5.90;;
249;SDS011;109;19.806;-70.704;2022-07-23T11:10:36;24.70;;;6.20;;
249;SDS011;109;19.806;-70.704;2022-07-23T11:34:30;33.53;;;11.80;;
249;SDS011;109;19.806;-70.704;2022-07-23T11:37:08;32.00;;;10.40;;
249;SDS011;109;19.806;-70.704;2022-07-23T11:39:36;24.80;;;9.13;;
249;SDS011;109;19.806;-70.704;2022-07-23T11:42:05;29.37;;;7.40;;
249;SDS011;109;19.806;-70.704;2022-07-23T11:44:33;24.27;;;7.60;;
249;SDS011;109;19.806;-70.704;2022-07-23T11:47:02;26.07;;;6.90;;
249;SDS011;109;19.806;-70.704;2022-07-23T11:49:31;20.20;;;6.37;;
249;SDS011;109;19.806;-70.704;2022-07-23T11:52:16;25.13;;;6.40;;
249;SDS011;109;19.806;-70.704;2022-07-23T11:57:36;46.23;;;7.67;;
249;SDS011;109;19.806;-70.704;2022-07-23T12:00:06;28.53;;;7.30;;
249;SDS011;109;19.806;-70.704;2022-07-23T12:02:41;27.40;;;7.13;;
249;SDS011;109;19.806;-70.704;2022-07-23T12:05:55;40.70;;;7.63;;
249;SDS011;109;19.806;-70.704;2022-07-23T12:08:00;33.67;;;7.13;;
249;SDS011;109;19.806;-70.704;2022-07-23T12:10:29;38.10;;;8.60;;
249;SDS011;109;19.806;-70.704;2022-07-23T12:13:07;63.13;;;10.33;;
249;SDS011;109;19.806;-70.704;2022-07-23T12:15:37;37.90;;;9.03;;
249;SDS011;109;19.806;-70.704;2022-07-23T12:18:10;40.43;;;7.60;;
249;SDS011;109;19.806;-70.704;2022-07-23T12:20:44;49.73;;;10.80;;
249;SDS011;109;19.806;-70.704;2022-07-23T12:23:15;32.33;;;6.53;;
249;SDS011;109;19.806;-70.704;2022-07-23T12:25:44;23.83;;;7.50;;
249;SDS011;109;19.806;-70.704;2022-07-23T12:28:12;29.20;;;6.67;;
249;SDS011;109;19.806;-70.704;2022-07-23T12:33:27;29.10;;;6.50;;
249;SDS011;109;19.806;-70.704;2022-07-23T12:35:55;26.77;;;5.97;;
249;SDS011;109;19.806;-70.704;2022-07-23T12:38:27;27.03;;;6.43;;
249;SDS011;109;19.806;-70.704;2022-07-23T12:40:55;21.07;;;5.47;;
249;SDS011;109;19.806;-70.704;2022-07-23T12:43:38;19.07;;;6.23;;
249;SDS011;109;19.806;-70.704;2022-07-23T12:48:34;11.20;;;6.10;;
249;SDS011;109;19.806;-70.704;2022-07-23T12:56:06;23.50;;;6.53;;
249;SDS011;109;19.806;-70.704;2022-07-23T12:58:51;22.57;;;7.60;;
249;SDS011;109;19.806;-70.704;2022-07-23T13:06:38;24.80;;;5.90;;
249;SDS011;109;19.806;-70.704;2022-07-23T13:09:07;23.90;;;6.67;;
249;SDS011;109;19.806;-70.704;2022-07-23T13:11:36;24.07;;;7.13;;
249;SDS011;109;19.806;-70.704;2022-07-23T13:14:03;21.80;;;6.00;;
249;SDS011;109;19.806;-70.704;2022-07-23T13:16:30;19.13;;;5.50;;
249;SDS011;109;19.806;-70.704;2022-07-23T13:18:57;26.87;;;5.87;;
249;SDS011;109;19.806;-70.704;2022-07-23T13:21:25;23.70;;;7.10;;
249;SDS011;109;19.806;-70.704;2022-07-23T13:23:53;28.43;;;5.80;;
249;SDS011;109;19.806;-70.704;2022-07-23T13:26:20;43.50;;;9.40;;
249;SDS011;109;19.806;-70.704;2022-07-23T13:28:46;41.73;;;7.50;;
249;SDS011;109;19.806;-70.704;2022-07-23T13:31:13;25.63;;;6.37;;
249;SDS011;109;19.806;-70.704;2022-07-23T13:33:40;32.63;;;7.10;;
249;SDS011;109;19.806;-70.704;2022-07-23T13:36:06;40.00;;;8.63;;
249;SDS011;109;19.806;-70.704;2022-07-23T13:38:33;36.73;;;7.00;;
249;SDS011;109;19.806;-70.704;2022-07-23T13:40:59;43.73;;;9.50;;
249;SDS011;109;19.806;-70.704;2022-07-23T13:43:29;38.03;;;8.20;;
249;SDS011;109;19.806;-70.704;2022-07-23T13:45:55;31.37;;;6.87;;
249;SDS011;109;19.806;-70.704;2022-07-23T13:48:22;30.43;;;7.00;;
249;SDS011;109;19.806;-70.704;2022-07-23T13:50:49;23.23;;;6.63;;
249;SDS011;109;19.806;-70.704;2022-07-23T13:53:17;26.63;;;6.20;;
249;SDS011;109;19.806;-70.704;2022-07-23T13:55:45;37.90;;;7.33;;
249;SDS011;109;19.806;-70.704;2022-07-23T13:58:13;34.60;;;6.40;;
249;SDS011;109;19.806;-70.704;2022-07-23T14:00:41;22.37;;;7.97;;
249;SDS011;109;19.806;-70.704;2022-07-23T14:03:09;32.13;;;6.50;;
249;SDS011;109;19.806;-70.704;2022-07-23T14:05:36;27.37;;;6.50;;
249;SDS011;109;19.806;-70.704;2022-07-23T14:08:02;39.57;;;8.03;;
249;SDS011;109;19.806;-70.704;2022-07-23T14:10:29;23.07;;;5.80;;
249;SDS011;109;19.806;-70.704;2022-07-23T14:12:56;42.47;;;7.10;;
249;SDS011;109;19.806;-70.704;2022-07-23T14:15:24;29.57;;;6.67;;
249;SDS011;109;19.806;-70.704;2022-07-23T14:17:52;39.87;;;6.33;;
249;SDS011;109;19.806;-70.704;2022-07-23T14:20:19;47.57;;;7.70;;
249;SDS011;109;19.806;-70.704;2022-07-23T14:22:46;22.03;;;5.13;;
249;SDS011;109;19.806;-70.704;2022-07-23T14:25:12;28.33;;;5.60;;
249;SDS011;109;19.806;-70.704;2022-07-23T14:27:39;38.00;;;8.07;;
249;SDS011;109;19.806;-70.704;2022-07-23T14:30:06;28.10;;;5.00;;
249;SDS011;109;19.806;-70.704;2022-07-23T14:32:34;24.03;;;6.00;;
249;SDS011;109;19.806;-70.704;2022-07-23T14:35:02;36.20;;;5.90;;
249;SDS011;109;19.806;-70.704;2022-07-23T14:37:30;21.53;;;4.83;;
249;SDS011;109;19.806;-70.704;2022-07-23T14:39:57;30.47;;;6.30;;
249;SDS011;109;19.806;-70.704;2022-07-23T14:42:24;22.70;;;5.47;;
249;SDS011;109;19.806;-70.704;2022-07-23T14:44:50;27.00;;;6.17;;
249;SDS011;109;19.806;-70.704;2022-07-23T14:47:16;24.00;;;4.93;;
249;SDS011;109;19.806;-70.704;2022-07-23T14:49:43;37.07;;;5.37;;
249;SDS011;109;19.806;-70.704;2022-07-23T14:52:10;13.30;;;4.27;;
249;SDS011;109;19.806;-70.704;2022-07-23T14:54:36;18.40;;;4.53;;
249;SDS011;109;19.806;-70.704;2022-07-23T14:57:03;24.53;;;5.10;;
249;SDS011;109;19.806;-70.704;2022-07-23T14:59:30;24.77;;;5.10;;
249;SDS011;109;19.806;-70.704;2022-07-23T15:01:56;24.27;;;4.40;;
249;SDS011;109;19.806;-70.704;2022-07-23T15:04:24;34.57;;;5.67;;
249;SDS011;109;19.806;-70.704;2022-07-23T15:06:51;22.57;;;4.80;;
249;SDS011;109;19.806;-70.704;2022-07-23T15:09:17;19.10;;;3.93;;
249;SDS011;109;19.806;-70.704;2022-07-23T15:11:44;19.37;;;4.40;;
249;SDS011;109;19.806;-70.704;2022-07-23T15:14:10;34.57;;;5.07;;
249;SDS011;109;19.806;-70.704;2022-07-23T15:16:37;19.90;;;4.70;;
249;SDS011;109;19.806;-70.704;2022-07-23T15:19:03;29.77;;;5.10;;
249;SDS011;109;19.806;-70.704;2022-07-23T15:21:30;24.30;;;5.07;;
249;SDS011;109;19.806;-70.704;2022-07-23T15:23:57;26.97;;;5.77;;
249;SDS011;109;19.806;-70.704;2022-07-23T15:26:25;30.13;;;4.90;;
249;SDS011;109;19.806;-70.704;2022-07-23T15:28:53;17.13;;;4.00;;
249;SDS011;109;19.806;-70.704;2022-07-23T15:31:19;26.10;;;6.00;;
249;SDS011;109;19.806;-70.704;2022-07-23T15:33:46;23.00;;;5.83;;
249;SDS011;109;19.806;-70.704;2022-07-23T15:36:13;20.73;;;4.40;;
249;SDS011;109;19.806;-70.704;2022-07-23T15:38:39;19.23;;;4.07;;
249;SDS011;109;19.806;-70.704;2022-07-23T15:41:06;23.20;;;4.30;;
249;SDS011;109;19.806;-70.704;2022-07-23T15:43:33;23.13;;;4.30;;
249;SDS011;109;19.806;-70.704;2022-07-23T15:45:59;24.73;;;4.50;;
249;SDS011;109;19.806;-70.704;2022-07-23T15:48:26;23.90;;;4.63;;
249;SDS011;109;19.806;-70.704;2022-07-23T15:50:52;28.43;;;4.50;;
249;SDS011;109;19.806;-70.704;2022-07-23T15:53:19;23.40;;;5.40;;
249;SDS011;109;19.806;-70.704;2022-07-23T15:55:45;20.83;;;4.63;;
249;SDS011;109;19.806;-70.704;2022-07-23T15:58:12;35.60;;;5.13;;
249;SDS011;109;19.806;-70.704;2022-07-23T16:00:39;27.53;;;5.40;;
249;SDS011;109;19.806;-70.704;2022-07-23T16:03:06;22.03;;;6.07;;
249;SDS011;109;19.806;-70.704;2022-07-23T16:05:32;20.73;;;4.63;;
249;SDS011;109;19.806;-70.704;2022-07-23T16:08:00;27.40;;;5.00;;
249;SDS011;109;19.806;-70.704;2022-07-23T16:10:27;15.57;;;4.17;;
249;SDS011;109;19.806;-70.704;2022-07-23T16:12:54;28.37;;;5.60;;
249;SDS011;109;19.806;-70.704;2022-07-23T16:15:20;19.93;;;4.53;;
249;SDS011;109;19.806;-70.704;2022-07-23T16:17:47;20.90;;;4.27;;
249;SDS011;109;19.806;-70.704;2022-07-23T16:20:13;22.30;;;5.60;;
249;SDS011;109;19.806;-70.704;2022-07-23T16:22:40;26.50;;;4.60;;
249;SDS011;109;19.806;-70.704;2022-07-23T16:25:07;20.00;;;4.70;;
249;SDS011;109;19.806;-70.704;2022-07-23T16:27:34;18.27;;;3.37;;
249;SDS011;109;19.806;-70.704;2022-07-23T16:30:02;16.77;;;3.80;;
249;SDS011;109;19.806;-70.704;2022-07-23T16:32:29;16.23;;;5.10;;
249;SDS011;109;19.806;-70.704;2022-07-23T16:34:56;11.53;;;2.90;;
249;SDS011;109;19.806;-70.704;2022-07-23T16:37:22;18.93;;;3.70;;
249;SDS011;109;19.806;-70.704;2022-07-23T16:39:49;13.07;;;3.73;;